createdAt,value
2022-09-06T00:00:24.298Z,53.05
2022-09-06T00:01:24.268Z,52.74
2022-09-06T00:02:24.262Z,53.07
2022-09-06T00:03:24.399Z,52.97
2022-09-06T00:04:24.290Z,52.87
2022-09-06T00:05:24.210Z,52.87
2022-09-06T00:06:24.719Z,52.76
2022-09-06T00:07:24.187Z,52.76
2022-09-06T00:08:24.238Z,53.38
2022-09-06T00:09:24.158Z,52.87
2022-09-06T00:10:24.150Z,52.97
2022-09-06T00:11:24.131Z,52.87
2022-09-06T00:12:24.124Z,52.97
2022-09-06T00:13:24.348Z,53.17
2022-09-06T00:14:24.089Z,52.76
2022-09-06T00:15:24.065Z,52.97
2022-09-06T00:16:28.421Z,52.97
2022-09-06T00:17:25.068Z,52.97
2022-09-06T00:18:24.047Z,53.17
2022-09-06T00:19:24.055Z,53.17
2022-09-06T00:20:24.049Z,52.97
2022-09-06T00:21:24.002Z,52.87
2022-09-06T00:22:23.984Z,52.97
2022-09-06T00:23:23.986Z,52.87
2022-09-06T00:24:23.959Z,53.07
2022-09-06T00:25:23.954Z,52.97
2022-09-06T00:26:23.933Z,53.07
2022-09-06T00:27:23.924Z,52.99
2022-09-06T00:28:23.914Z,53.19
2022-09-06T00:29:24.678Z,53.07
2022-09-06T00:30:23.967Z,52.87
2022-09-06T00:31:24.160Z,52.67
2022-09-06T00:32:23.852Z,52.97
2022-09-06T00:33:23.852Z,52.87
2022-09-06T00:34:23.840Z,53.07
2022-09-06T00:35:23.847Z,53.27
2022-09-06T00:36:23.823Z,52.89
2022-09-06T00:37:23.783Z,52.89
2022-09-06T00:38:23.775Z,53.09
2022-09-06T00:39:23.836Z,52.69
2022-09-06T00:40:23.886Z,52.69
2022-09-06T00:41:23.733Z,52.69
2022-09-06T00:42:23.733Z,52.79
2022-09-06T00:43:23.731Z,52.59
2022-09-06T00:44:23.716Z,52.69
2022-09-06T00:45:23.698Z,52.79
2022-09-06T00:46:23.693Z,52.69
2022-09-06T00:47:23.647Z,52.79
2022-09-06T00:48:23.685Z,52.69
2022-09-06T00:49:23.644Z,52.79
2022-09-06T00:50:23.622Z,52.89
2022-09-06T00:51:23.651Z,52.99
2022-09-06T00:52:23.591Z,52.99
2022-09-06T00:53:23.602Z,52.79
2022-09-06T00:54:23.582Z,52.69
2022-09-06T00:55:23.551Z,52.89
2022-09-06T00:56:23.552Z,52.89
2022-09-06T00:57:23.519Z,52.79
2022-09-06T00:58:23.540Z,52.69
2022-09-06T00:59:23.530Z,52.69
2022-09-06T01:00:23.491Z,52.69
2022-09-06T01:01:23.600Z,52.59
2022-09-06T01:02:23.618Z,52.89
2022-09-06T01:03:23.502Z,52.59
2022-09-06T01:04:23.452Z,52.69
2022-09-06T01:05:23.472Z,52.72
2022-09-06T01:06:23.429Z,52.72
2022-09-06T01:07:23.400Z,52.72
2022-09-06T01:08:23.466Z,52.72
2022-09-06T01:09:23.370Z,52.92
2022-09-06T01:10:23.368Z,52.92
2022-09-06T01:11:23.356Z,53.02
2022-09-06T01:12:23.413Z,53.02
2022-09-06T01:13:23.334Z,53.02
2022-09-06T01:14:23.343Z,52.92
2022-09-06T01:15:23.372Z,53.12
2022-09-06T01:16:23.298Z,52.92
2022-09-06T01:17:23.282Z,52.92
2022-09-06T01:18:23.334Z,53.02
2022-09-06T01:19:23.256Z,52.92
2022-09-06T01:20:23.249Z,52.92
2022-09-06T01:21:23.229Z,52.92
2022-09-06T01:22:23.225Z,53.02
2022-09-06T01:23:23.210Z,53.12
2022-09-06T01:24:23.169Z,52.92
2022-09-06T01:25:23.173Z,53.32
2022-09-06T01:26:23.169Z,53.32
2022-09-06T01:27:23.138Z,53.02
2022-09-06T01:28:23.197Z,53.25
2022-09-06T01:29:23.110Z,53.25
2022-09-06T01:30:23.134Z,53.34
2022-09-06T01:31:23.190Z,53.75
2022-09-06T01:32:23.088Z,53.34
2022-09-06T01:33:23.079Z,53.55
2022-09-06T01:34:23.049Z,53.25
2022-09-06T01:35:23.028Z,53.65
2022-09-06T01:36:23.033Z,53.45
2022-09-06T01:37:23.068Z,53.55
2022-09-06T01:38:23.064Z,53.75
2022-09-06T01:39:23.014Z,53.65
2022-09-06T01:40:22.977Z,53.85
2022-09-06T01:41:22.973Z,53.75
2022-09-06T01:42:22.946Z,53.85
2022-09-06T01:43:22.946Z,53.65
2022-09-06T01:44:22.936Z,53.65
2022-09-06T01:45:22.906Z,53.75
2022-09-06T01:46:22.977Z,53.98
2022-09-06T01:47:22.876Z,54.08
2022-09-06T01:48:22.959Z,53.88
2022-09-06T01:49:22.854Z,53.88
2022-09-06T01:50:22.886Z,53.98
2022-09-06T01:51:22.844Z,54.08
2022-09-06T01:52:22.864Z,54.08
2022-09-06T01:53:22.854Z,54.18
2022-09-06T01:54:22.792Z,54.18
2022-09-06T01:55:22.781Z,54.28
2022-09-06T01:56:22.768Z,54.59
2022-09-06T01:57:22.767Z,54.69
2022-09-06T01:58:22.749Z,54.38
2022-09-06T01:59:22.725Z,54.28
2022-09-06T02:00:22.720Z,54.38
2022-09-06T02:01:22.732Z,54.49
2022-09-06T02:02:22.709Z,54.59
2022-09-06T02:03:22.704Z,54.59
2022-09-06T02:04:22.665Z,54.69
2022-09-06T02:05:22.682Z,54.79
2022-09-06T02:06:22.663Z,54.89
2022-09-06T02:07:22.634Z,54.89
2022-09-06T02:08:22.688Z,54.89
2022-09-06T02:09:22.611Z,54.79
2022-09-06T02:10:22.598Z,54.89
2022-09-06T02:11:22.612Z,54.89
2022-09-06T02:12:22.556Z,55.19
2022-09-06T02:13:22.567Z,54.89
2022-09-06T02:15:17.067Z,55.30
2022-09-06T02:16:17.078Z,55.19
2022-09-06T02:17:17.001Z,54.99
2022-09-06T02:18:16.980Z,55.19
2022-09-06T02:19:16.987Z,55.10
2022-09-06T02:20:16.959Z,55.10
2022-09-06T02:21:16.968Z,55.10
2022-09-06T02:22:16.939Z,55.50
2022-09-06T02:23:16.930Z,55.70
2022-09-06T02:24:16.907Z,55.30
2022-09-06T02:25:16.899Z,55.32
2022-09-06T02:26:16.898Z,55.32
2022-09-06T02:27:16.888Z,55.63
2022-09-06T02:28:16.859Z,55.83
2022-09-06T02:29:16.848Z,55.52
2022-09-06T02:30:16.833Z,55.52
2022-09-06T02:31:16.859Z,55.43
2022-09-06T02:32:16.827Z,55.52
2022-09-06T02:33:16.881Z,55.63
2022-09-06T02:34:16.795Z,55.63
2022-09-06T02:35:16.770Z,55.63
2022-09-06T02:36:16.831Z,55.83
2022-09-06T02:37:16.748Z,55.83
2022-09-06T02:38:16.736Z,55.83
2022-09-06T02:39:16.715Z,56.13
2022-09-06T02:40:16.705Z,56.03
2022-09-06T02:41:16.718Z,56.03
2022-09-06T02:42:16.679Z,56.23
2022-09-06T02:43:16.669Z,56.13
2022-09-06T02:44:16.646Z,56.23
2022-09-06T02:45:16.635Z,56.23
2022-09-06T02:46:16.695Z,56.23
2022-09-06T02:47:16.619Z,56.34
2022-09-06T02:48:16.595Z,56.46
2022-09-06T02:49:16.577Z,56.44
2022-09-06T02:50:16.574Z,56.54
2022-09-06T02:51:16.554Z,56.74
2022-09-06T02:52:16.546Z,56.44
2022-09-06T02:53:16.547Z,56.95
2022-09-06T02:54:16.518Z,56.54
2022-09-06T02:55:16.514Z,56.54
2022-09-06T02:56:16.503Z,56.97
2022-09-06T02:57:16.484Z,56.87
2022-09-06T02:58:16.496Z,57.07
2022-09-06T02:59:16.453Z,57.07
2022-09-06T03:00:16.486Z,57.07
2022-09-06T03:01:16.455Z,57.17
2022-09-06T03:02:16.496Z,57.28
2022-09-06T03:03:16.403Z,57.48
2022-09-06T03:04:16.383Z,57.48
2022-09-06T03:05:16.394Z,57.78
2022-09-06T03:06:16.362Z,57.78
2022-09-06T03:07:16.354Z,57.58
2022-09-06T03:08:16.336Z,57.58
2022-09-06T03:09:16.364Z,57.78
2022-09-06T03:10:16.323Z,57.88
2022-09-06T03:11:16.291Z,57.98
2022-09-06T03:12:16.283Z,57.98
2022-09-06T03:13:16.281Z,58.09
2022-09-06T03:14:16.262Z,58.18
2022-09-06T03:15:16.251Z,58.29
2022-09-06T03:16:16.300Z,58.29
2022-09-06T03:17:16.239Z,58.29
2022-09-06T03:18:16.231Z,58.49
2022-09-06T03:19:16.202Z,58.49
2022-09-06T03:20:16.191Z,58.39
2022-09-06T03:21:16.171Z,58.49
2022-09-06T03:22:16.172Z,58.69
2022-09-06T03:23:16.156Z,58.59
2022-09-06T03:24:16.141Z,58.69
2022-09-06T03:25:16.151Z,58.90
2022-09-06T03:26:16.100Z,59.00
2022-09-06T03:27:16.099Z,59.10
2022-09-06T03:28:16.070Z,59.20
2022-09-06T03:29:16.065Z,59.10
2022-09-06T03:30:16.058Z,59.41
2022-09-06T03:31:16.082Z,59.41
2022-09-06T03:32:16.025Z,59.41
2022-09-06T03:33:16.011Z,59.50
2022-09-06T03:34:15.999Z,59.70
2022-09-06T03:35:15.987Z,59.70
2022-09-06T03:36:15.981Z,59.61
2022-09-06T03:37:15.962Z,59.81
2022-09-06T03:38:15.950Z,59.81
2022-09-06T03:39:15.966Z,59.91
2022-09-06T03:40:16.066Z,60.21
2022-09-06T03:41:15.917Z,60.04
2022-09-06T03:42:15.908Z,60.35
2022-09-06T03:43:15.873Z,60.35
2022-09-06T03:44:15.909Z,60.55
2022-09-06T03:45:15.848Z,60.55
2022-09-06T03:46:15.897Z,60.65
2022-09-06T03:47:19.493Z,60.85
2022-09-06T03:48:15.820Z,60.55
2022-09-06T03:49:15.808Z,60.65
2022-09-06T03:50:15.797Z,60.95
2022-09-06T03:51:15.776Z,61.16
2022-09-06T03:52:15.769Z,61.05
2022-09-06T03:53:15.748Z,61.25
2022-09-06T03:54:15.756Z,61.36
2022-09-06T03:55:15.735Z,61.36
2022-09-06T03:56:15.726Z,61.66
2022-09-06T03:57:15.706Z,61.46
2022-09-06T03:58:15.685Z,61.69
2022-09-06T03:59:15.687Z,61.79
2022-09-06T04:00:15.664Z,61.90
2022-09-06T04:01:15.732Z,62.10
2022-09-06T04:02:15.761Z,61.90
2022-09-06T04:03:15.637Z,61.90
2022-09-06T04:04:15.687Z,61.99
2022-09-06T04:05:15.638Z,62.30
2022-09-06T04:06:15.604Z,62.20
2022-09-06T04:07:15.592Z,62.51
2022-09-06T04:08:15.598Z,62.20
2022-09-06T04:09:15.559Z,62.30
2022-09-06T04:10:15.556Z,62.40
2022-09-06T04:11:17.322Z,62.40
2022-09-06T04:12:15.533Z,62.51
2022-09-06T04:13:15.524Z,62.71
2022-09-06T04:14:15.494Z,62.60
2022-09-06T04:15:15.473Z,62.51
2022-09-06T04:16:15.479Z,62.60
2022-09-06T04:17:15.453Z,62.71
2022-09-06T04:18:15.441Z,62.71
2022-09-06T04:19:15.425Z,62.71
2022-09-06T04:20:15.425Z,62.94
2022-09-06T04:21:15.393Z,62.94
2022-09-06T04:22:15.393Z,63.01
2022-09-06T04:23:15.382Z,62.94
2022-09-06T04:24:15.359Z,63.24
2022-09-06T04:25:15.342Z,63.11
2022-09-06T04:26:15.331Z,63.14
2022-09-06T04:27:15.310Z,63.24
2022-09-06T04:28:15.316Z,63.34
2022-09-06T04:29:15.300Z,63.32
2022-09-06T04:30:15.331Z,63.32
2022-09-06T04:31:16.655Z,63.52
2022-09-06T04:32:15.269Z,63.32
2022-09-06T04:33:15.242Z,63.42
2022-09-06T04:34:15.216Z,63.52
2022-09-06T04:35:15.212Z,63.52
2022-09-06T04:36:15.188Z,63.62
2022-09-06T04:37:15.177Z,63.52
2022-09-06T04:38:15.194Z,63.52
2022-09-06T04:39:15.172Z,63.21
2022-09-06T04:40:15.185Z,63.52
2022-09-06T04:41:15.129Z,63.32
2022-09-06T04:42:15.540Z,63.55
2022-09-06T04:43:15.126Z,63.65
2022-09-06T04:44:15.123Z,63.75
2022-09-06T04:45:15.146Z,63.85
2022-09-06T04:46:15.149Z,63.75
2022-09-06T04:47:15.138Z,63.65
2022-09-06T04:48:15.059Z,63.65
2022-09-06T04:49:15.059Z,63.85
2022-09-06T04:50:15.028Z,63.85
2022-09-06T04:51:15.019Z,63.75
2022-09-06T04:52:15.018Z,63.95
2022-09-06T04:53:15.117Z,63.95
2022-09-06T04:54:14.977Z,63.85
2022-09-06T04:55:14.964Z,63.85
2022-09-06T04:56:14.957Z,63.95
2022-09-06T04:57:14.934Z,64.33
2022-09-06T04:58:14.932Z,64.03
2022-09-06T04:59:14.907Z,63.82
2022-09-06T05:00:14.908Z,64.13
2022-09-06T05:01:14.902Z,64.33
2022-09-06T05:02:14.897Z,63.82
2022-09-06T05:03:14.885Z,64.13
2022-09-06T05:04:14.849Z,63.92
2022-09-06T05:05:14.840Z,63.72
2022-09-06T05:06:14.846Z,63.92
2022-09-06T05:07:14.809Z,63.82
2022-09-06T05:08:14.823Z,64.13
2022-09-06T05:09:14.813Z,63.92
2022-09-06T05:10:14.785Z,63.82
2022-09-06T05:11:14.757Z,63.82
2022-09-06T05:12:14.933Z,63.82
2022-09-06T05:13:14.746Z,63.92
2022-09-06T05:14:14.754Z,64.23
2022-09-06T05:15:14.718Z,64.13
2022-09-06T05:16:14.777Z,64.03
2022-09-06T05:17:14.682Z,64.33
2022-09-06T05:18:16.221Z,63.72
2022-09-06T05:19:14.706Z,63.52
2022-09-06T05:20:14.686Z,63.72
2022-09-06T05:21:14.645Z,63.92
2022-09-06T05:22:14.616Z,63.82
2022-09-06T05:23:14.605Z,63.92
2022-09-06T05:24:14.606Z,63.62
2022-09-06T05:25:14.583Z,64.13
2022-09-06T05:26:14.563Z,64.33
2022-09-06T05:27:14.551Z,63.89
2022-09-06T05:28:14.542Z,63.79
2022-09-06T05:29:14.534Z,63.59
2022-09-06T05:30:14.520Z,63.69
2022-09-06T05:31:14.600Z,63.62
2022-09-06T05:32:14.503Z,63.89
2022-09-06T05:33:14.479Z,63.59
2022-09-06T05:34:14.473Z,63.69
2022-09-06T05:35:14.440Z,63.59
2022-09-06T05:36:14.428Z,63.49
2022-09-06T05:37:14.453Z,63.69
2022-09-06T05:38:14.422Z,63.49
2022-09-06T05:39:14.407Z,63.39
2022-09-06T05:40:14.380Z,63.18
2022-09-06T05:41:14.370Z,63.39
2022-09-06T05:42:19.038Z,63.18
2022-09-06T05:43:15.355Z,63.29
2022-09-06T05:44:14.332Z,63.39
2022-09-06T05:45:14.318Z,63.18
2022-09-06T05:46:14.359Z,63.39
2022-09-06T05:47:14.288Z,63.08
2022-09-06T05:48:14.280Z,63.18
2022-09-06T05:49:14.270Z,63.46
2022-09-06T05:50:14.257Z,63.15
2022-09-06T05:51:14.239Z,63.15
2022-09-06T05:52:14.232Z,63.46
2022-09-06T05:53:14.221Z,62.85
2022-09-06T05:54:14.211Z,63.15
2022-09-06T05:55:14.177Z,63.35
2022-09-06T05:56:14.179Z,63.12
2022-09-06T05:57:14.149Z,62.54
2022-09-06T05:58:14.186Z,62.65
2022-09-06T05:59:14.139Z,62.85
2022-09-06T06:00:14.139Z,63.06
2022-09-06T06:01:14.118Z,62.85
2022-09-06T06:02:14.160Z,62.41
2022-09-06T06:03:14.078Z,62.92
2022-09-06T06:04:14.076Z,62.82
2022-09-06T06:05:14.047Z,62.62
2022-09-06T06:06:14.067Z,62.11
2022-09-06T06:07:14.039Z,62.41
2022-09-06T06:08:14.040Z,62.31
2022-09-06T06:09:14.035Z,62.41
2022-09-06T06:10:14.050Z,62.82
2022-09-06T06:11:14.013Z,62.31
2022-09-06T06:12:13.977Z,61.80
2022-09-06T06:13:14.007Z,61.80
2022-09-06T06:14:13.987Z,61.60
2022-09-06T06:15:13.926Z,62.01
2022-09-06T06:16:13.974Z,61.78
2022-09-06T06:17:13.908Z,61.47
2022-09-06T06:18:13.887Z,61.47
2022-09-06T06:19:13.875Z,61.47
2022-09-06T06:20:13.866Z,61.27
2022-09-06T06:21:13.845Z,61.27
2022-09-06T06:22:13.851Z,61.58
2022-09-06T06:23:13.835Z,60.97
2022-09-06T06:24:13.827Z,61.07
2022-09-06T06:25:13.797Z,61.17
2022-09-06T06:26:13.809Z,61.47
2022-09-06T06:27:13.797Z,60.86
2022-09-06T06:28:13.993Z,60.84
2022-09-06T06:29:13.781Z,60.63
2022-09-06T06:30:18.233Z,60.23
2022-09-06T06:31:13.783Z,60.63
2022-09-06T06:32:13.725Z,60.33
2022-09-06T06:33:13.713Z,60.30
2022-09-06T06:34:13.694Z,60.10
2022-09-06T06:35:13.672Z,60.20
2022-09-06T06:36:13.658Z,60.61
2022-09-06T06:37:13.643Z,59.97
2022-09-06T06:38:13.683Z,59.67
2022-09-06T06:39:13.658Z,59.67
2022-09-06T06:40:13.696Z,59.77
2022-09-06T06:41:13.596Z,59.67
2022-09-06T06:42:13.603Z,60.07
2022-09-06T06:43:13.635Z,59.74
2022-09-06T06:44:13.565Z,59.97
2022-09-06T06:45:13.572Z,59.67
2022-09-06T06:46:13.684Z,59.97
2022-09-06T06:47:13.532Z,60.07
2022-09-06T06:48:13.512Z,59.67
2022-09-06T06:49:13.563Z,59.27
2022-09-06T06:50:13.496Z,59.80
2022-09-06T06:51:13.462Z,59.59
2022-09-06T06:52:13.460Z,59.90
2022-09-06T06:53:13.460Z,59.67
2022-09-06T06:54:13.431Z,59.16
2022-09-06T06:55:13.423Z,59.27
2022-09-06T06:56:13.420Z,59.16
2022-09-06T06:57:13.392Z,59.54
2022-09-06T06:58:13.376Z,59.03
2022-09-06T06:59:13.361Z,58.83
2022-09-06T07:00:13.353Z,58.50
2022-09-06T07:01:13.488Z,58.53
2022-09-06T07:02:13.556Z,58.63
2022-09-06T07:03:13.311Z,59.03
2022-09-06T07:04:13.306Z,58.91
2022-09-06T07:06:14.269Z,58.50
2022-09-06T07:08:14.250Z,58.30
2022-09-06T07:09:13.225Z,59.00
2022-09-06T07:11:14.300Z,58.40
2022-09-06T07:12:13.209Z,58.30
2022-09-06T07:13:13.182Z,58.70
2022-09-06T07:14:13.179Z,58.60
2022-09-06T07:15:13.171Z,58.50
2022-09-06T07:16:13.203Z,58.80
2022-09-06T07:17:14.147Z,58.58
2022-09-06T07:18:13.304Z,58.37
2022-09-06T07:20:14.879Z,58.27
2022-09-06T07:22:14.090Z,58.80
2022-09-06T07:24:14.056Z,58.60
2022-09-06T07:25:15.305Z,58.80
2022-09-06T07:26:13.022Z,58.67
2022-09-06T07:28:14.025Z,58.87
2022-09-06T07:29:12.977Z,58.67
2022-09-06T07:30:12.982Z,59.08
2022-09-06T07:32:13.949Z,59.35
2022-09-06T07:33:13.018Z,58.85
2022-09-06T07:34:12.956Z,58.25
2022-09-06T07:35:12.899Z,58.54
2022-09-06T07:36:12.897Z,57.94
2022-09-06T07:37:12.887Z,58.45
2022-09-06T07:38:12.891Z,58.45
2022-09-06T07:39:12.979Z,58.65
2022-09-06T07:40:12.969Z,58.34
2022-09-06T07:41:12.828Z,58.22
2022-09-06T07:42:12.834Z,58.12
2022-09-06T07:43:12.965Z,58.22
2022-09-06T07:44:12.842Z,58.42
2022-09-06T07:45:12.797Z,58.72
2022-09-06T07:46:12.767Z,58.01
2022-09-06T07:48:13.746Z,58.12
2022-09-06T07:49:12.736Z,58.01
2022-09-06T07:51:13.705Z,58.32
2022-09-06T07:53:16.705Z,58.65
2022-09-06T07:54:30.130Z,58.85
2022-09-06T07:55:13.685Z,58.72
2022-09-06T07:56:12.745Z,58.52
2022-09-06T07:57:12.617Z,58.42
2022-09-06T07:58:12.675Z,58.39
2022-09-06T07:59:12.613Z,58.09
2022-09-06T08:00:12.666Z,58.59
2022-09-06T08:01:12.721Z,58.09
2022-09-06T08:02:12.620Z,58.52
2022-09-06T08:03:12.586Z,58.32
2022-09-06T08:04:12.565Z,58.32
2022-09-06T08:06:13.626Z,58.62
2022-09-06T08:09:13.524Z,58.69
2022-09-06T08:10:13.935Z,58.59
2022-09-06T08:11:12.486Z,58.49
2022-09-06T08:12:12.441Z,58.59
2022-09-06T08:13:12.695Z,58.69
2022-09-06T08:14:12.466Z,58.39
2022-09-06T08:15:19.456Z,58.16
2022-09-06T08:16:12.420Z,58.47
2022-09-06T08:17:12.389Z,58.47
2022-09-06T08:18:14.156Z,58.69
2022-09-06T08:19:12.373Z,58.47
2022-09-06T08:20:12.363Z,58.67
2022-09-06T08:21:13.074Z,58.56
2022-09-06T08:22:12.327Z,58.36
2022-09-06T08:23:12.377Z,58.36
2022-09-06T08:24:12.319Z,58.36
2022-09-06T08:25:12.309Z,58.67
2022-09-06T08:26:12.278Z,58.36
2022-09-06T08:27:12.287Z,58.16
2022-09-06T08:28:12.398Z,58.36
2022-09-06T08:29:12.211Z,58.36
2022-09-06T08:30:12.221Z,58.56
2022-09-06T08:31:12.284Z,58.56
2022-09-06T08:32:12.192Z,58.47
2022-09-06T08:33:12.227Z,58.56
2022-09-06T08:34:12.285Z,58.67
2022-09-06T08:35:12.176Z,58.54
2022-09-06T08:36:12.137Z,58.44
2022-09-06T08:37:12.117Z,58.41
2022-09-06T08:38:12.089Z,58.11
2022-09-06T08:39:12.075Z,57.81
2022-09-06T08:40:12.120Z,57.90
2022-09-06T08:41:12.050Z,58.01
2022-09-06T08:42:12.052Z,58.34
2022-09-06T08:43:12.078Z,58.31
2022-09-06T08:45:13.021Z,58.11
2022-09-06T08:46:12.056Z,58.51
2022-09-06T08:47:12.004Z,57.90
2022-09-06T08:48:11.999Z,57.88
2022-09-06T08:49:12.017Z,57.78
2022-09-06T08:50:12.051Z,57.88
2022-09-06T08:51:11.977Z,57.55
2022-09-06T08:52:11.936Z,56.95
2022-09-06T08:53:19.211Z,57.24
2022-09-06T08:54:12.995Z,57.24
2022-09-06T08:55:11.935Z,57.24
2022-09-06T08:56:11.892Z,57.55
2022-09-06T08:57:11.874Z,57.45
2022-09-06T08:58:11.986Z,57.45
2022-09-06T08:59:11.875Z,57.55
2022-09-06T09:00:11.903Z,57.42
2022-09-06T09:01:11.890Z,56.92
2022-09-06T09:02:11.879Z,57.15
2022-09-06T09:03:16.431Z,57.24
2022-09-06T09:04:12.779Z,57.35
2022-09-06T09:05:11.802Z,57.02
2022-09-06T09:06:11.774Z,56.92
2022-09-06T09:07:11.772Z,57.02
2022-09-06T09:08:11.747Z,57.02
2022-09-06T09:09:11.722Z,57.19
2022-09-06T09:10:11.739Z,56.79
2022-09-06T09:11:11.664Z,57.02
2022-09-06T09:12:11.716Z,56.79
2022-09-06T09:13:11.845Z,56.79
2022-09-06T09:14:11.697Z,56.59
2022-09-06T09:15:12.048Z,56.79
2022-09-06T09:16:11.675Z,56.69
2022-09-06T09:17:11.643Z,56.59
2022-09-06T09:18:11.716Z,56.56
2022-09-06T09:19:11.644Z,56.56
2022-09-06T09:20:11.596Z,56.03
2022-09-06T09:21:11.553Z,55.73
2022-09-06T09:22:11.595Z,55.93
2022-09-06T09:23:11.564Z,55.73
2022-09-06T09:24:11.524Z,55.73
2022-09-06T09:25:11.528Z,55.83
2022-09-06T09:26:11.513Z,55.83
2022-09-06T09:27:11.537Z,55.63
2022-09-06T09:28:11.675Z,55.73
2022-09-06T09:29:11.569Z,55.83
2022-09-06T09:31:12.578Z,55.63
2022-09-06T09:32:11.441Z,55.63
2022-09-06T09:33:11.467Z,55.51
2022-09-06T09:34:11.485Z,55.33
2022-09-06T09:35:11.371Z,55.86
2022-09-06T09:36:11.334Z,55.96
2022-09-06T09:38:12.444Z,56.46
2022-09-06T09:39:11.353Z,56.36
2022-09-06T09:40:11.413Z,56.16
2022-09-06T09:41:11.339Z,56.46
2022-09-06T09:42:11.325Z,56.13
2022-09-06T09:43:11.293Z,55.83
2022-09-06T09:44:11.289Z,56.03
2022-09-06T09:45:11.366Z,56.03
2022-09-06T09:46:11.299Z,55.83
2022-09-06T09:47:11.303Z,56.13
2022-09-06T09:48:11.336Z,55.83
2022-09-06T09:49:11.242Z,55.71
2022-09-06T09:50:11.221Z,55.63
2022-09-06T09:51:15.459Z,55.91
2022-09-06T09:52:12.185Z,55.30
2022-09-06T09:53:11.206Z,55.51
2022-09-06T09:54:13.280Z,55.71
2022-09-06T09:55:11.156Z,55.71
2022-09-06T09:56:11.122Z,55.40
2022-09-06T09:57:12.025Z,55.40
2022-09-06T09:58:11.090Z,55.30
2022-09-06T09:59:11.130Z,55.20
2022-09-06T10:00:11.062Z,55.18
2022-09-06T10:01:11.200Z,55.18
2022-09-06T10:02:11.053Z,54.97
2022-09-06T10:03:11.054Z,54.97
2022-09-06T10:05:11.993Z,55.28
2022-09-06T10:07:11.996Z,55.05
2022-09-06T10:08:10.989Z,55.45
2022-09-06T10:09:10.938Z,55.45
2022-09-06T10:10:11.040Z,55.43
2022-09-06T10:11:10.938Z,55.32
2022-09-06T10:12:10.921Z,55.43
2022-09-06T10:13:10.911Z,55.22
2022-09-06T10:14:11.780Z,54.20
2022-09-06T10:15:10.888Z,54.39
2022-09-06T10:16:10.889Z,54.43
2022-09-06T10:17:10.845Z,55.02
2022-09-06T10:18:10.830Z,54.70
2022-09-06T10:19:10.825Z,55.00
2022-09-06T10:20:11.074Z,54.30
2022-09-06T10:21:10.792Z,54.72
2022-09-06T10:22:10.811Z,54.52
2022-09-06T10:23:10.771Z,54.02
2022-09-06T10:24:26.795Z,54.32
2022-09-06T10:25:11.829Z,54.39
2022-09-06T10:26:10.762Z,54.90
2022-09-06T10:27:10.746Z,54.80
2022-09-06T10:28:11.885Z,54.70
2022-09-06T10:29:10.706Z,54.30
2022-09-06T10:30:10.765Z,54.50
2022-09-06T10:31:10.723Z,54.50
2022-09-06T10:32:10.655Z,54.10
2022-09-06T10:33:10.643Z,54.00
2022-09-06T10:34:10.622Z,54.30
2022-09-06T10:35:10.606Z,53.80
2022-09-06T10:36:10.604Z,54.10
2022-09-06T10:37:10.558Z,53.89
2022-09-06T10:38:10.549Z,54.50
2022-09-06T10:39:10.602Z,53.87
2022-09-06T10:40:10.674Z,53.57
2022-09-06T10:41:10.532Z,53.50
2022-09-06T10:42:10.531Z,53.30
2022-09-06T10:43:10.554Z,53.50
2022-09-06T10:44:10.521Z,53.50
2022-09-06T10:45:10.704Z,54.00
2022-09-06T10:46:10.496Z,54.20
2022-09-06T10:47:10.495Z,53.59
2022-09-06T10:48:14.553Z,54.20
2022-09-06T10:49:10.422Z,53.69
2022-09-06T10:50:10.478Z,54.20
2022-09-06T10:51:10.487Z,54.07
2022-09-06T10:52:10.440Z,54.37
2022-09-06T10:53:10.412Z,53.17
2022-09-06T10:54:10.388Z,53.87
2022-09-06T10:55:10.361Z,54.07
2022-09-06T10:56:10.429Z,53.97
2022-09-06T10:58:19.642Z,53.55
2022-09-06T11:00:11.882Z,52.74
2022-09-06T11:01:10.367Z,53.05
2022-09-06T11:02:10.491Z,52.55
2022-09-06T11:04:12.756Z,52.52
2022-09-06T11:06:11.222Z,51.72
2022-09-06T11:07:10.221Z,52.02
2022-09-06T11:09:11.293Z,51.82
2022-09-06T11:10:10.250Z,51.62
2022-09-06T11:11:10.184Z,51.72
2022-09-06T11:12:10.156Z,52.42
2022-09-06T11:13:10.152Z,52.02
2022-09-06T11:14:10.462Z,51.82
2022-09-06T11:15:10.132Z,51.50
2022-09-06T11:16:10.324Z,51.59
2022-09-06T11:17:10.096Z,51.62
2022-09-06T11:18:10.083Z,51.82
2022-09-06T11:19:10.082Z,52.22
2022-09-06T11:20:10.165Z,52.12
2022-09-06T11:21:10.045Z,52.34
2022-09-06T11:22:09.989Z,52.24
2022-09-06T11:23:09.981Z,52.44
2022-09-06T11:24:09.995Z,52.74
2022-09-06T11:25:09.970Z,52.24
2022-09-06T11:26:09.977Z,52.64
2022-09-06T11:27:09.993Z,52.94
2022-09-06T11:28:09.940Z,53.14
2022-09-06T11:29:09.965Z,52.84
2022-09-06T11:30:09.945Z,52.94
2022-09-06T11:32:18.520Z,53.05
2022-09-06T11:33:10.914Z,52.72
2022-09-06T11:34:09.873Z,52.72
2022-09-06T11:35:09.910Z,52.44
2022-09-06T11:36:09.876Z,52.74
2022-09-06T11:37:09.794Z,52.84
2022-09-06T11:38:09.810Z,52.55
2022-09-06T11:39:09.996Z,52.64
2022-09-06T11:41:12.195Z,52.84
2022-09-06T11:42:09.734Z,52.94
2022-09-06T11:43:09.721Z,52.44
2022-09-06T11:44:09.730Z,52.55
2022-09-06T11:45:09.718Z,52.57
2022-09-06T11:46:09.756Z,53.05
2022-09-06T11:47:09.768Z,52.84
2022-09-06T11:48:09.729Z,52.24
2022-09-06T11:49:09.696Z,52.34
2022-09-06T11:50:09.627Z,52.84
2022-09-06T11:51:10.769Z,52.32
2022-09-06T11:52:09.630Z,52.04
2022-09-06T11:53:09.600Z,52.22
2022-09-06T11:54:09.595Z,52.32
2022-09-06T11:55:09.582Z,52.82
2022-09-06T11:56:09.591Z,52.42
2022-09-06T11:57:09.551Z,52.32
2022-09-06T11:58:09.578Z,51.92
2022-09-06T11:59:09.531Z,51.92
2022-09-06T12:00:09.513Z,52.22
2022-09-06T12:01:09.635Z,52.32
2022-09-06T12:02:09.504Z,52.32
2022-09-06T12:04:10.648Z,52.12
2022-09-06T12:05:09.455Z,52.02
2022-09-06T12:06:09.456Z,52.42
2022-09-06T12:07:09.448Z,52.82
2022-09-06T12:08:09.418Z,52.80
2022-09-06T12:09:09.516Z,52.29
2022-09-06T12:10:09.393Z,52.02
2022-09-06T12:11:09.634Z,52.09
2022-09-06T12:12:12.370Z,51.89
2022-09-06T12:13:10.380Z,51.92
2022-09-06T12:14:09.391Z,52.19
2022-09-06T12:15:09.374Z,51.79
2022-09-06T12:16:09.382Z,51.79
2022-09-06T12:17:09.370Z,51.89
2022-09-06T12:18:09.286Z,51.89
2022-09-06T12:19:09.297Z,51.69
2022-09-06T12:20:09.287Z,52.00
2022-09-06T12:21:09.294Z,52.29
2022-09-06T12:22:09.243Z,51.89
2022-09-06T12:23:09.250Z,52.09
2022-09-06T12:24:09.231Z,52.07
2022-09-06T12:25:09.200Z,52.07
2022-09-06T12:26:09.209Z,51.47
2022-09-06T12:27:09.164Z,51.97
2022-09-06T12:28:09.212Z,52.27
2022-09-06T12:29:09.147Z,51.67
2022-09-06T12:30:09.150Z,51.67
2022-09-06T12:31:13.165Z,51.67
2022-09-06T12:32:10.132Z,51.37
2022-09-06T12:33:09.104Z,51.37
2022-09-06T12:34:09.112Z,51.37
2022-09-06T12:36:10.097Z,51.25
2022-09-06T12:37:09.078Z,51.34
2022-09-06T12:38:09.122Z,51.54
2022-09-06T12:39:09.021Z,51.45
2022-09-06T12:40:09.154Z,51.75
2022-09-06T12:41:09.027Z,51.52
2022-09-06T12:42:09.320Z,51.12
2022-09-06T12:43:08.978Z,51.62
2022-09-06T12:44:08.963Z,51.72
2022-09-06T12:45:08.981Z,51.12
2022-09-06T12:46:08.991Z,51.42
2022-09-06T12:47:08.932Z,51.32
2022-09-06T12:48:08.904Z,50.90
2022-09-06T12:49:08.947Z,51.20
2022-09-06T12:50:08.939Z,51.20
2022-09-06T12:51:08.918Z,51.07
2022-09-06T12:52:08.914Z,51.07
2022-09-06T12:53:08.870Z,50.67
2022-09-06T12:54:08.948Z,50.85
2022-09-06T12:55:08.810Z,50.35
2022-09-06T12:56:08.845Z,50.62
2022-09-06T12:57:08.837Z,49.93
2022-09-06T12:58:08.759Z,50.02
2022-09-06T12:59:08.749Z,50.05
2022-09-06T13:00:08.772Z,50.35
2022-09-06T13:01:08.753Z,50.25
2022-09-06T13:02:08.849Z,49.83
2022-09-06T13:03:08.840Z,50.02
2022-09-06T13:04:08.711Z,50.05
2022-09-06T13:05:08.665Z,50.25
2022-09-06T13:06:08.686Z,50.05
2022-09-06T13:07:08.770Z,50.65
2022-09-06T13:08:08.769Z,50.25
2022-09-06T13:09:08.645Z,50.37
2022-09-06T13:10:08.639Z,50.37
2022-09-06T13:11:08.719Z,50.37
2022-09-06T13:12:08.619Z,50.99
2022-09-06T13:13:08.679Z,50.79
2022-09-06T13:14:13.314Z,50.99
2022-09-06T13:15:09.571Z,50.49
2022-09-06T13:16:08.627Z,50.72
2022-09-06T13:17:08.536Z,50.52
2022-09-06T13:18:08.813Z,50.82
2022-09-06T13:19:08.511Z,51.10
2022-09-06T13:20:08.518Z,50.70
2022-09-06T13:21:08.758Z,50.49